Notice: Undefined index: station in /home3/dimtiris/public_html/webApp/metar/index.php on line 4

Metar

Weather conditions for all airports of the world. Just type the ICAO code of an airport.

LGAV 291750Z 01011KT CAVOK 25/15 Q1015 RMK SCT180

STATION LGAV
OBSERVED Fri Aug 29, 11:50 MDT
NOW Fri Aug 29, 12:20 MDT
AGE 30 min ago
WIND N at 13 mph
VISIBILITY greater than 7 miles
CONDITIONS
CLOUDS clear skies
TEMP 77°F (25°C)
DEWPT 59°F (15°C)
HUMIDITY 54%
BAROMETER 1015 hPa (29.97 in Hg)

Get weather info from other station:

Some ICAO codes to try: